sensor_id;sensor_type;location;lat;lon;timestamp;temperature;humidity
81136;DHT22;70622;50.886;3.890;2024-03-06T00:01:53;8.30;99.90
81136;DHT22;70622;50.886;3.890;2024-03-06T00:04:19;8.20;99.90
81136;DHT22;70622;50.886;3.890;2024-03-06T00:06:44;8.30;99.90
81136;DHT22;70622;50.886;3.890;2024-03-06T00:09:10;8.30;99.90
81136;DHT22;70622;50.886;3.890;2024-03-06T00:11:35;8.30;99.90
81136;DHT22;70622;50.886;3.890;2024-03-06T00:14:02;8.30;99.90
81136;DHT22;70622;50.886;3.890;2024-03-06T00:16:28;8.30;99.90
81136;DHT22;70622;50.886;3.890;2024-03-06T00:18:53;8.10;99.90
81136;DHT22;70622;50.886;3.890;2024-03-06T00:21:19;8.20;99.90
81136;DHT22;70622;50.886;3.890;2024-03-06T00:23:45;8.20;99.90
81136;DHT22;70622;50.886;3.890;2024-03-06T00:26:11;8.10;99.90
81136;DHT22;70622;50.886;3.890;2024-03-06T00:28:38;8.10;99.90
81136;DHT22;70622;50.886;3.890;2024-03-06T00:31:05;8.10;99.90
81136;DHT22;70622;50.886;3.890;2024-03-06T00:33:31;8.20;99.90
81136;DHT22;70622;50.886;3.890;2024-03-06T00:35:57;8.10;99.90
81136;DHT22;70622;50.886;3.890;2024-03-06T00:38:22;8.20;99.90
81136;DHT22;70622;50.886;3.890;2024-03-06T00:40:48;8.20;99.90
81136;DHT22;70622;50.886;3.890;2024-03-06T00:43:14;8.10;99.90
81136;DHT22;70622;50.886;3.890;2024-03-06T00:45:40;8.10;99.90
81136;DHT22;70622;50.886;3.890;2024-03-06T00:48:05;8.10;99.90
81136;DHT22;70622;50.886;3.890;2024-03-06T00:50:31;8.00;99.90
81136;DHT22;70622;50.886;3.890;2024-03-06T00:52:57;7.90;99.90
81136;DHT22;70622;50.886;3.890;2024-03-06T00:55:23;8.00;99.90
81136;DHT22;70622;50.886;3.890;2024-03-06T00:57:49;7.90;99.90
81136;DHT22;70622;50.886;3.890;2024-03-06T01:00:15;7.90;99.90
81136;DHT22;70622;50.886;3.890;2024-03-06T01:02:41;7.90;99.90
81136;DHT22;70622;50.886;3.890;2024-03-06T01:05:07;8.00;99.90
81136;DHT22;70622;50.886;3.890;2024-03-06T01:07:35;8.00;99.90
81136;DHT22;70622;50.886;3.890;2024-03-06T01:10:02;8.00;99.90
81136;DHT22;70622;50.886;3.890;2024-03-06T01:12:28;8.00;99.90
81136;DHT22;70622;50.886;3.890;2024-03-06T01:14:54;8.00;99.90
81136;DHT22;70622;50.886;3.890;2024-03-06T01:17:19;8.00;99.90
81136;DHT22;70622;50.886;3.890;2024-03-06T01:19:45;7.90;99.90
81136;DHT22;70622;50.886;3.890;2024-03-06T01:22:13;7.90;99.90
81136;DHT22;70622;50.886;3.890;2024-03-06T01:24:39;7.70;99.90
81136;DHT22;70622;50.886;3.890;2024-03-06T01:27:05;7.60;99.90
81136;DHT22;70622;50.886;3.890;2024-03-06T01:29:31;7.50;99.90
81136;DHT22;70622;50.886;3.890;2024-03-06T01:31:58;7.50;99.90
81136;DHT22;70622;50.886;3.890;2024-03-06T01:34:23;7.40;99.90
81136;DHT22;70622;50.886;3.890;2024-03-06T01:36:50;7.30;99.90
81136;DHT22;70622;50.886;3.890;2024-03-06T01:39:16;7.30;99.90
81136;DHT22;70622;50.886;3.890;2024-03-06T01:41:50;7.20;99.90
81136;DHT22;70622;50.886;3.890;2024-03-06T01:44:17;7.20;99.90
81136;DHT22;70622;50.886;3.890;2024-03-06T01:46:44;7.10;99.90
81136;DHT22;70622;50.886;3.890;2024-03-06T01:49:11;7.10;99.90
81136;DHT22;70622;50.886;3.890;2024-03-06T01:51:39;7.10;99.90
81136;DHT22;70622;50.886;3.890;2024-03-06T01:54:05;7.10;99.90
81136;DHT22;70622;50.886;3.890;2024-03-06T01:56:33;7.10;99.90
81136;DHT22;70622;50.886;3.890;2024-03-06T01:58:59;7.10;99.90
81136;DHT22;70622;50.886;3.890;2024-03-06T02:01:25;7.10;99.90
81136;DHT22;70622;50.886;3.890;2024-03-06T02:03:51;7.10;99.90
81136;DHT22;70622;50.886;3.890;2024-03-06T02:06:18;7.00;99.90
81136;DHT22;70622;50.886;3.890;2024-03-06T02:08:45;7.10;99.90
81136;DHT22;70622;50.886;3.890;2024-03-06T02:11:11;7.10;99.90
81136;DHT22;70622;50.886;3.890;2024-03-06T02:13:38;7.00;99.90
81136;DHT22;70622;50.886;3.890;2024-03-06T02:16:04;7.00;99.90
81136;DHT22;70622;50.886;3.890;2024-03-06T02:18:30;7.00;99.90
81136;DHT22;70622;50.886;3.890;2024-03-06T02:20:55;7.00;99.90
81136;DHT22;70622;50.886;3.890;2024-03-06T02:23:21;6.90;99.90
81136;DHT22;70622;50.886;3.890;2024-03-06T02:25:47;6.90;99.90
81136;DHT22;70622;50.886;3.890;2024-03-06T02:28:13;6.90;99.90
81136;DHT22;70622;50.886;3.890;2024-03-06T02:30:39;6.90;99.90
81136;DHT22;70622;50.886;3.890;2024-03-06T02:33:06;6.90;99.90
81136;DHT22;70622;50.886;3.890;2024-03-06T02:35:33;6.90;99.90
81136;DHT22;70622;50.886;3.890;2024-03-06T02:37:59;6.80;99.90
81136;DHT22;70622;50.886;3.890;2024-03-06T02:40:25;6.70;99.90
81136;DHT22;70622;50.886;3.890;2024-03-06T02:42:50;6.70;99.90
81136;DHT22;70622;50.886;3.890;2024-03-06T02:45:16;6.80;99.90
81136;DHT22;70622;50.886;3.890;2024-03-06T02:47:42;6.80;99.90
81136;DHT22;70622;50.886;3.890;2024-03-06T02:50:08;6.90;99.90
81136;DHT22;70622;50.886;3.890;2024-03-06T02:52:33;6.80;99.90
81136;DHT22;70622;50.886;3.890;2024-03-06T02:54:59;6.80;99.90
81136;DHT22;70622;50.886;3.890;2024-03-06T02:57:28;6.80;99.90
81136;DHT22;70622;50.886;3.890;2024-03-06T02:59:56;6.80;99.90
81136;DHT22;70622;50.886;3.890;2024-03-06T03:02:21;6.80;99.90
81136;DHT22;70622;50.886;3.890;2024-03-06T03:04:47;6.90;99.90
81136;DHT22;70622;50.886;3.890;2024-03-06T03:07:13;6.90;99.90
81136;DHT22;70622;50.886;3.890;2024-03-06T03:09:38;6.90;99.90
81136;DHT22;70622;50.886;3.890;2024-03-06T03:12:05;6.90;99.90
81136;DHT22;70622;50.886;3.890;2024-03-06T03:14:30;7.00;99.90
81136;DHT22;70622;50.886;3.890;2024-03-06T03:16:56;6.90;99.90
81136;DHT22;70622;50.886;3.890;2024-03-06T03:19:21;6.90;99.90
81136;DHT22;70622;50.886;3.890;2024-03-06T03:21:47;6.90;99.90
81136;DHT22;70622;50.886;3.890;2024-03-06T03:24:12;7.00;99.90
81136;DHT22;70622;50.886;3.890;2024-03-06T03:26:38;7.00;99.90
81136;DHT22;70622;50.886;3.890;2024-03-06T03:29:04;6.90;99.90
81136;DHT22;70622;50.886;3.890;2024-03-06T03:31:30;6.90;99.90
81136;DHT22;70622;50.886;3.890;2024-03-06T03:33:56;6.90;99.90
81136;DHT22;70622;50.886;3.890;2024-03-06T03:36:22;6.90;99.90
81136;DHT22;70622;50.886;3.890;2024-03-06T03:38:48;6.90;99.90
81136;DHT22;70622;50.886;3.890;2024-03-06T03:41:14;7.00;99.90
81136;DHT22;70622;50.886;3.890;2024-03-06T03:43:40;7.00;99.90
81136;DHT22;70622;50.886;3.890;2024-03-06T03:48:35;7.00;99.90
81136;DHT22;70622;50.886;3.890;2024-03-06T03:51:03;7.00;99.90
81136;DHT22;70622;50.886;3.890;2024-03-06T03:53:30;6.90;99.90
81136;DHT22;70622;50.886;3.890;2024-03-06T03:55:56;7.00;99.90
81136;DHT22;70622;50.886;3.890;2024-03-06T03:58:21;7.00;99.90
81136;DHT22;70622;50.886;3.890;2024-03-06T04:00:47;6.90;99.90
81136;DHT22;70622;50.886;3.890;2024-03-06T04:03:12;6.90;99.90
81136;DHT22;70622;50.886;3.890;2024-03-06T04:05:38;6.80;99.90
81136;DHT22;70622;50.886;3.890;2024-03-06T04:08:04;6.80;99.90
81136;DHT22;70622;50.886;3.890;2024-03-06T04:10:31;6.80;99.90
81136;DHT22;70622;50.886;3.890;2024-03-06T04:12:58;6.70;99.90
81136;DHT22;70622;50.886;3.890;2024-03-06T04:15:25;6.70;99.90
81136;DHT22;70622;50.886;3.890;2024-03-06T04:17:51;6.70;99.90
81136;DHT22;70622;50.886;3.890;2024-03-06T04:20:17;6.60;99.90
81136;DHT22;70622;50.886;3.890;2024-03-06T04:22:43;6.60;99.90
81136;DHT22;70622;50.886;3.890;2024-03-06T04:25:11;6.50;99.90
81136;DHT22;70622;50.886;3.890;2024-03-06T04:27:37;6.50;99.90
81136;DHT22;70622;50.886;3.890;2024-03-06T04:46:15;6.40;99.90
81136;DHT22;70622;50.886;3.890;2024-03-06T04:48:41;6.50;99.90
81136;DHT22;70622;50.886;3.890;2024-03-06T04:51:06;6.50;99.90
81136;DHT22;70622;50.886;3.890;2024-03-06T04:53:32;6.50;99.90
81136;DHT22;70622;50.886;3.890;2024-03-06T04:55:57;6.50;99.90
81136;DHT22;70622;50.886;3.890;2024-03-06T04:58:23;6.40;99.90
81136;DHT22;70622;50.886;3.890;2024-03-06T05:00:48;6.50;99.90
81136;DHT22;70622;50.886;3.890;2024-03-06T05:03:14;6.50;99.90
81136;DHT22;70622;50.886;3.890;2024-03-06T05:05:40;6.50;99.90
81136;DHT22;70622;50.886;3.890;2024-03-06T05:08:06;6.60;99.90
81136;DHT22;70622;50.886;3.890;2024-03-06T05:10:32;6.60;99.90
81136;DHT22;70622;50.886;3.890;2024-03-06T05:12:58;6.50;99.90
81136;DHT22;70622;50.886;3.890;2024-03-06T05:15:23;6.50;99.90
81136;DHT22;70622;50.886;3.890;2024-03-06T05:17:49;6.50;99.90
81136;DHT22;70622;50.886;3.890;2024-03-06T05:20:14;6.50;99.90
81136;DHT22;70622;50.886;3.890;2024-03-06T05:22:40;6.50;99.90
81136;DHT22;70622;50.886;3.890;2024-03-06T05:25:06;6.60;99.90
81136;DHT22;70622;50.886;3.890;2024-03-06T05:27:31;6.60;99.90
81136;DHT22;70622;50.886;3.890;2024-03-06T05:29:57;6.60;99.90
81136;DHT22;70622;50.886;3.890;2024-03-06T05:32:23;6.60;99.90
81136;DHT22;70622;50.886;3.890;2024-03-06T05:34:49;6.80;99.90
81136;DHT22;70622;50.886;3.890;2024-03-06T05:37:14;6.80;99.90
81136;DHT22;70622;50.886;3.890;2024-03-06T05:39:40;6.80;99.90
81136;DHT22;70622;50.886;3.890;2024-03-06T05:42:07;6.80;99.90
81136;DHT22;70622;50.886;3.890;2024-03-06T05:44:34;6.70;99.90
81136;DHT22;70622;50.886;3.890;2024-03-06T05:47:01;6.70;99.90
81136;DHT22;70622;50.886;3.890;2024-03-06T05:49:27;6.70;99.90
81136;DHT22;70622;50.886;3.890;2024-03-06T05:51:54;6.60;99.90
81136;DHT22;70622;50.886;3.890;2024-03-06T05:54:20;6.60;99.90
81136;DHT22;70622;50.886;3.890;2024-03-06T05:56:48;6.60;99.90
81136;DHT22;70622;50.886;3.890;2024-03-06T05:59:13;6.50;99.90
81136;DHT22;70622;50.886;3.890;2024-03-06T06:01:42;6.50;99.90
81136;DHT22;70622;50.886;3.890;2024-03-06T06:04:10;6.40;99.90
81136;DHT22;70622;50.886;3.890;2024-03-06T06:06:36;6.40;99.90
81136;DHT22;70622;50.886;3.890;2024-03-06T06:09:03;6.40;99.90
81136;DHT22;70622;50.886;3.890;2024-03-06T06:11:31;6.30;99.90
81136;DHT22;70622;50.886;3.890;2024-03-06T06:13:57;6.30;99.90
81136;DHT22;70622;50.886;3.890;2024-03-06T06:16:23;6.20;99.90
81136;DHT22;70622;50.886;3.890;2024-03-06T06:18:48;6.20;99.90
81136;DHT22;70622;50.886;3.890;2024-03-06T06:21:14;6.20;99.90
81136;DHT22;70622;50.886;3.890;2024-03-06T06:23:40;6.10;99.90
81136;DHT22;70622;50.886;3.890;2024-03-06T06:26:05;6.20;99.90
81136;DHT22;70622;50.886;3.890;2024-03-06T06:28:31;6.20;99.90
81136;DHT22;70622;50.886;3.890;2024-03-06T06:30:57;6.20;99.90
81136;DHT22;70622;50.886;3.890;2024-03-06T06:33:22;6.20;99.90
81136;DHT22;70622;50.886;3.890;2024-03-06T06:35:48;6.30;99.90
81136;DHT22;70622;50.886;3.890;2024-03-06T06:38:13;6.20;99.90
81136;DHT22;70622;50.886;3.890;2024-03-06T06:40:39;6.30;99.90
81136;DHT22;70622;50.886;3.890;2024-03-06T06:43:06;6.20;99.90
81136;DHT22;70622;50.886;3.890;2024-03-06T06:45:31;6.20;99.90
81136;DHT22;70622;50.886;3.890;2024-03-06T06:47:57;6.20;99.90
81136;DHT22;70622;50.886;3.890;2024-03-06T06:50:23;6.30;99.90
81136;DHT22;70622;50.886;3.890;2024-03-06T06:52:52;6.20;99.90
81136;DHT22;70622;50.886;3.890;2024-03-06T06:57:53;6.20;99.90
81136;DHT22;70622;50.886;3.890;2024-03-06T07:00:20;6.10;99.90
81136;DHT22;70622;50.886;3.890;2024-03-06T07:02:48;6.10;99.90
81136;DHT22;70622;50.886;3.890;2024-03-06T07:05:15;6.20;99.90
81136;DHT22;70622;50.886;3.890;2024-03-06T07:07:42;6.30;99.90
81136;DHT22;70622;50.886;3.890;2024-03-06T07:10:08;6.40;99.90
81136;DHT22;70622;50.886;3.890;2024-03-06T07:12:37;6.40;99.90
81136;DHT22;70622;50.886;3.890;2024-03-06T07:15:06;6.50;99.90
81136;DHT22;70622;50.886;3.890;2024-03-06T07:17:32;6.60;99.90
81136;DHT22;70622;50.886;3.890;2024-03-06T07:20:04;6.60;99.90
81136;DHT22;70622;50.886;3.890;2024-03-06T07:22:34;6.70;99.90
81136;DHT22;70622;50.886;3.890;2024-03-06T07:25:02;6.80;99.90
81136;DHT22;70622;50.886;3.890;2024-03-06T07:27:28;6.70;99.90
81136;DHT22;70622;50.886;3.890;2024-03-06T07:29:54;6.70;99.90
81136;DHT22;70622;50.886;3.890;2024-03-06T07:32:22;6.80;99.90
81136;DHT22;70622;50.886;3.890;2024-03-06T07:34:47;6.90;99.90
81136;DHT22;70622;50.886;3.890;2024-03-06T07:37:22;7.00;99.90
81136;DHT22;70622;50.886;3.890;2024-03-06T07:39:50;7.00;99.90
81136;DHT22;70622;50.886;3.890;2024-03-06T07:42:15;7.10;99.90
81136;DHT22;70622;50.886;3.890;2024-03-06T07:44:46;7.20;99.90
81136;DHT22;70622;50.886;3.890;2024-03-06T07:47:11;7.20;99.90
81136;DHT22;70622;50.886;3.890;2024-03-06T07:49:38;7.20;99.90
81136;DHT22;70622;50.886;3.890;2024-03-06T07:52:04;7.20;99.90
81136;DHT22;70622;50.886;3.890;2024-03-06T07:54:30;7.20;99.90
81136;DHT22;70622;50.886;3.890;2024-03-06T07:56:59;7.30;99.90
81136;DHT22;70622;50.886;3.890;2024-03-06T07:59:24;7.30;99.90
81136;DHT22;70622;50.886;3.890;2024-03-06T08:01:50;7.30;99.90
81136;DHT22;70622;50.886;3.890;2024-03-06T08:04:16;7.40;99.90
81136;DHT22;70622;50.886;3.890;2024-03-06T08:06:42;7.40;99.90
81136;DHT22;70622;50.886;3.890;2024-03-06T08:09:08;7.40;99.90
81136;DHT22;70622;50.886;3.890;2024-03-06T08:11:33;7.40;99.90
81136;DHT22;70622;50.886;3.890;2024-03-06T08:13:59;7.40;99.90
81136;DHT22;70622;50.886;3.890;2024-03-06T08:16:26;7.40;99.90
81136;DHT22;70622;50.886;3.890;2024-03-06T08:18:52;7.40;99.90
81136;DHT22;70622;50.886;3.890;2024-03-06T08:21:17;7.50;99.90
81136;DHT22;70622;50.886;3.890;2024-03-06T08:23:45;7.60;99.90
81136;DHT22;70622;50.886;3.890;2024-03-06T08:26:12;7.60;99.90
81136;DHT22;70622;50.886;3.890;2024-03-06T08:28:38;7.70;99.90
81136;DHT22;70622;50.886;3.890;2024-03-06T08:31:04;7.80;99.90
81136;DHT22;70622;50.886;3.890;2024-03-06T08:33:29;7.80;99.90
81136;DHT22;70622;50.886;3.890;2024-03-06T08:35:55;7.80;99.90
81136;DHT22;70622;50.886;3.890;2024-03-06T08:38:21;7.80;99.90
81136;DHT22;70622;50.886;3.890;2024-03-06T08:40:46;7.80;99.90
81136;DHT22;70622;50.886;3.890;2024-03-06T08:43:13;7.80;99.90
81136;DHT22;70622;50.886;3.890;2024-03-06T08:45:41;7.80;99.90
81136;DHT22;70622;50.886;3.890;2024-03-06T08:48:24;7.90;99.90
81136;DHT22;70622;50.886;3.890;2024-03-06T08:50:50;8.00;99.90
81136;DHT22;70622;50.886;3.890;2024-03-06T08:53:16;8.10;99.90
81136;DHT22;70622;50.886;3.890;2024-03-06T08:55:53;8.10;99.90
81136;DHT22;70622;50.886;3.890;2024-03-06T08:58:22;8.10;99.90
81136;DHT22;70622;50.886;3.890;2024-03-06T09:00:47;8.10;99.90
81136;DHT22;70622;50.886;3.890;2024-03-06T09:03:14;8.10;99.90
81136;DHT22;70622;50.886;3.890;2024-03-06T09:05:42;8.10;99.90
81136;DHT22;70622;50.886;3.890;2024-03-06T09:08:09;8.20;99.90
81136;DHT22;70622;50.886;3.890;2024-03-06T09:10:39;8.20;99.90
81136;DHT22;70622;50.886;3.890;2024-03-06T09:13:06;8.30;99.90
81136;DHT22;70622;50.886;3.890;2024-03-06T09:15:32;8.40;99.90
81136;DHT22;70622;50.886;3.890;2024-03-06T09:18:02;8.50;99.90
81136;DHT22;70622;50.886;3.890;2024-03-06T09:20:28;8.50;99.90
81136;DHT22;70622;50.886;3.890;2024-03-06T09:23:02;8.50;99.90
81136;DHT22;70622;50.886;3.890;2024-03-06T09:25:28;8.60;99.90
81136;DHT22;70622;50.886;3.890;2024-03-06T09:27:54;8.60;99.90
81136;DHT22;70622;50.886;3.890;2024-03-06T09:30:20;8.80;99.90
81136;DHT22;70622;50.886;3.890;2024-03-06T09:32:48;8.80;99.90
81136;DHT22;70622;50.886;3.890;2024-03-06T09:35:14;8.80;99.90
81136;DHT22;70622;50.886;3.890;2024-03-06T09:37:40;8.80;99.90
81136;DHT22;70622;50.886;3.890;2024-03-06T09:40:06;8.90;99.90
81136;DHT22;70622;50.886;3.890;2024-03-06T09:42:33;9.00;99.90
81136;DHT22;70622;50.886;3.890;2024-03-06T09:44:59;9.10;99.90
81136;DHT22;70622;50.886;3.890;2024-03-06T09:47:25;9.10;99.90
81136;DHT22;70622;50.886;3.890;2024-03-06T09:49:53;9.00;99.90
81136;DHT22;70622;50.886;3.890;2024-03-06T09:52:19;9.10;99.90
81136;DHT22;70622;50.886;3.890;2024-03-06T09:54:45;9.10;99.90
81136;DHT22;70622;50.886;3.890;2024-03-06T09:57:10;9.30;99.90
81136;DHT22;70622;50.886;3.890;2024-03-06T09:59:38;9.30;99.90
81136;DHT22;70622;50.886;3.890;2024-03-06T10:02:20;9.30;99.90
81136;DHT22;70622;50.886;3.890;2024-03-06T10:04:49;9.20;99.90
81136;DHT22;70622;50.886;3.890;2024-03-06T10:07:15;9.10;99.90
81136;DHT22;70622;50.886;3.890;2024-03-06T10:09:41;9.30;99.90
81136;DHT22;70622;50.886;3.890;2024-03-06T10:12:17;9.50;99.90
81136;DHT22;70622;50.886;3.890;2024-03-06T10:14:51;9.60;99.90
81136;DHT22;70622;50.886;3.890;2024-03-06T10:17:21;9.80;99.90
81136;DHT22;70622;50.886;3.890;2024-03-06T10:19:48;9.90;99.90
81136;DHT22;70622;50.886;3.890;2024-03-06T10:22:19;10.10;99.90
81136;DHT22;70622;50.886;3.890;2024-03-06T10:24:46;10.20;99.90
81136;DHT22;70622;50.886;3.890;2024-03-06T10:27:16;10.20;99.90
81136;DHT22;70622;50.886;3.890;2024-03-06T10:29:44;10.20;99.90
81136;DHT22;70622;50.886;3.890;2024-03-06T10:32:17;10.30;99.90
81136;DHT22;70622;50.886;3.890;2024-03-06T10:34:44;10.40;99.90
81136;DHT22;70622;50.886;3.890;2024-03-06T10:37:11;10.40;99.90
81136;DHT22;70622;50.886;3.890;2024-03-06T10:39:41;10.60;99.90
81136;DHT22;70622;50.886;3.890;2024-03-06T10:42:07;10.60;99.90
81136;DHT22;70622;50.886;3.890;2024-03-06T10:44:34;10.80;99.90
81136;DHT22;70622;50.886;3.890;2024-03-06T11:04:31;10.80;99.90
81136;DHT22;70622;50.886;3.890;2024-03-06T11:07:03;10.60;99.90
81136;DHT22;70622;50.886;3.890;2024-03-06T11:09:37;10.70;99.90
81136;DHT22;70622;50.886;3.890;2024-03-06T11:12:05;10.70;99.90
81136;DHT22;70622;50.886;3.890;2024-03-06T11:14:38;10.90;99.90
81136;DHT22;70622;50.886;3.890;2024-03-06T11:33:45;12.40;99.90
81136;DHT22;70622;50.886;3.890;2024-03-06T11:41:50;12.40;99.90
81136;DHT22;70622;50.886;3.890;2024-03-06T11:44:19;12.70;99.90
81136;DHT22;70622;50.886;3.890;2024-03-06T11:57:09;14.00;99.90
81136;DHT22;70622;50.886;3.890;2024-03-06T11:59:37;14.30;99.90
81136;DHT22;70622;50.886;3.890;2024-03-06T12:02:06;14.30;99.90
81136;DHT22;70622;50.886;3.890;2024-03-06T12:04:34;14.20;99.90
81136;DHT22;70622;50.886;3.890;2024-03-06T12:07:11;13.70;99.90
81136;DHT22;70622;50.886;3.890;2024-03-06T12:09:40;13.50;99.90
81136;DHT22;70622;50.886;3.890;2024-03-06T12:12:07;13.70;99.90
81136;DHT22;70622;50.886;3.890;2024-03-06T12:17:15;13.80;99.90
81136;DHT22;70622;50.886;3.890;2024-03-06T12:19:49;14.10;99.90
81136;DHT22;70622;50.886;3.890;2024-03-06T12:22:15;14.20;98.70
81136;DHT22;70622;50.886;3.890;2024-03-06T12:24:41;14.10;97.80
81136;DHT22;70622;50.886;3.890;2024-03-06T12:27:09;13.60;97.50
81136;DHT22;70622;50.886;3.890;2024-03-06T12:29:37;13.50;98.60
81136;DHT22;70622;50.886;3.890;2024-03-06T12:32:17;13.50;98.40
81136;DHT22;70622;50.886;3.890;2024-03-06T12:37:18;13.70;98.50
81136;DHT22;70622;50.886;3.890;2024-03-06T12:39:52;14.00;97.20
81136;DHT22;70622;50.886;3.890;2024-03-06T12:42:18;14.00;97.90
81136;DHT22;70622;50.886;3.890;2024-03-06T12:44:59;13.80;98.10
81136;DHT22;70622;50.886;3.890;2024-03-06T12:47:25;14.10;96.90
81136;DHT22;70622;50.886;3.890;2024-03-06T12:49:50;14.50;95.00
81136;DHT22;70622;50.886;3.890;2024-03-06T12:52:16;14.40;94.60
81136;DHT22;70622;50.886;3.890;2024-03-06T12:54:42;14.40;94.50
81136;DHT22;70622;50.886;3.890;2024-03-06T12:57:09;14.50;94.10
81136;DHT22;70622;50.886;3.890;2024-03-06T12:59:34;14.80;94.90
81136;DHT22;70622;50.886;3.890;2024-03-06T13:02:00;15.10;94.10
81136;DHT22;70622;50.886;3.890;2024-03-06T13:04:25;15.00;93.70
81136;DHT22;70622;50.886;3.890;2024-03-06T13:06:51;15.10;93.30
81136;DHT22;70622;50.886;3.890;2024-03-06T13:09:17;15.10;92.20
81136;DHT22;70622;50.886;3.890;2024-03-06T13:11:42;15.10;92.40
81136;DHT22;70622;50.886;3.890;2024-03-06T13:14:08;14.90;91.40
81136;DHT22;70622;50.886;3.890;2024-03-06T13:16:37;14.90;92.30
81136;DHT22;70622;50.886;3.890;2024-03-06T13:19:02;14.90;92.00
81136;DHT22;70622;50.886;3.890;2024-03-06T13:21:29;14.90;92.00
81136;DHT22;70622;50.886;3.890;2024-03-06T13:23:54;14.80;90.80
81136;DHT22;70622;50.886;3.890;2024-03-06T13:26:20;14.80;91.30
81136;DHT22;70622;50.886;3.890;2024-03-06T13:28:46;14.80;91.60
81136;DHT22;70622;50.886;3.890;2024-03-06T13:31:11;14.70;92.30
81136;DHT22;70622;50.886;3.890;2024-03-06T13:33:37;14.50;93.10
81136;DHT22;70622;50.886;3.890;2024-03-06T13:36:03;14.50;93.10
81136;DHT22;70622;50.886;3.890;2024-03-06T13:38:29;14.40;91.90
81136;DHT22;70622;50.886;3.890;2024-03-06T13:40:54;14.40;93.50
81136;DHT22;70622;50.886;3.890;2024-03-06T13:43:20;14.20;93.90
81136;DHT22;70622;50.886;3.890;2024-03-06T13:45:50;14.40;93.80
81136;DHT22;70622;50.886;3.890;2024-03-06T13:48:16;14.40;92.50
81136;DHT22;70622;50.886;3.890;2024-03-06T13:50:43;14.20;92.70
81136;DHT22;70622;50.886;3.890;2024-03-06T13:53:10;14.10;92.70
81136;DHT22;70622;50.886;3.890;2024-03-06T13:55:36;13.70;90.90
81136;DHT22;70622;50.886;3.890;2024-03-06T13:58:01;13.70;91.20
81136;DHT22;70622;50.886;3.890;2024-03-06T14:00:27;13.80;91.20
81136;DHT22;70622;50.886;3.890;2024-03-06T14:02:53;14.10;91.50
81136;DHT22;70622;50.886;3.890;2024-03-06T14:05:18;14.40;91.10
81136;DHT22;70622;50.886;3.890;2024-03-06T14:07:50;14.60;92.00
81136;DHT22;70622;50.886;3.890;2024-03-06T14:10:16;14.60;91.20
81136;DHT22;70622;50.886;3.890;2024-03-06T14:12:44;14.60;92.40
81136;DHT22;70622;50.886;3.890;2024-03-06T14:15:11;14.90;91.50
81136;DHT22;70622;50.886;3.890;2024-03-06T14:17:38;15.00;92.10
81136;DHT22;70622;50.886;3.890;2024-03-06T14:20:04;15.30;89.60
81136;DHT22;70622;50.886;3.890;2024-03-06T14:22:30;15.50;90.10
81136;DHT22;70622;50.886;3.890;2024-03-06T14:24:56;15.50;89.10
81136;DHT22;70622;50.886;3.890;2024-03-06T14:27:21;15.10;90.70
81136;DHT22;70622;50.886;3.890;2024-03-06T14:29:47;14.40;90.80
81136;DHT22;70622;50.886;3.890;2024-03-06T14:32:16;13.90;93.70
81136;DHT22;70622;50.886;3.890;2024-03-06T14:34:44;13.60;94.40
81136;DHT22;70622;50.886;3.890;2024-03-06T14:37:10;13.50;94.70
81136;DHT22;70622;50.886;3.890;2024-03-06T14:39:36;13.50;95.00
81136;DHT22;70622;50.886;3.890;2024-03-06T14:42:01;13.50;95.10
81136;DHT22;70622;50.886;3.890;2024-03-06T14:44:28;13.40;94.30
81136;DHT22;70622;50.886;3.890;2024-03-06T14:46:54;13.30;94.70
81136;DHT22;70622;50.886;3.890;2024-03-06T14:49:20;13.40;94.80
81136;DHT22;70622;50.886;3.890;2024-03-06T14:51:45;13.60;93.80
81136;DHT22;70622;50.886;3.890;2024-03-06T14:54:11;13.80;93.50
81136;DHT22;70622;50.886;3.890;2024-03-06T14:56:36;13.80;92.80
81136;DHT22;70622;50.886;3.890;2024-03-06T14:59:02;13.60;93.60
81136;DHT22;70622;50.886;3.890;2024-03-06T15:01:28;13.50;93.50
81136;DHT22;70622;50.886;3.890;2024-03-06T15:03:54;13.60;94.00
81136;DHT22;70622;50.886;3.890;2024-03-06T15:06:20;13.60;93.90
81136;DHT22;70622;50.886;3.890;2024-03-06T15:08:46;13.40;94.20
81136;DHT22;70622;50.886;3.890;2024-03-06T15:11:11;13.60;94.30
81136;DHT22;70622;50.886;3.890;2024-03-06T15:13:37;13.70;93.70
81136;DHT22;70622;50.886;3.890;2024-03-06T15:16:03;13.80;93.10
81136;DHT22;70622;50.886;3.890;2024-03-06T15:18:31;13.90;92.90
81136;DHT22;70622;50.886;3.890;2024-03-06T15:20:58;13.80;93.50
81136;DHT22;70622;50.886;3.890;2024-03-06T15:23:23;13.60;93.70
81136;DHT22;70622;50.886;3.890;2024-03-06T15:25:49;13.40;93.90
81136;DHT22;70622;50.886;3.890;2024-03-06T15:28:15;13.90;93.50
81136;DHT22;70622;50.886;3.890;2024-03-06T15:30:40;14.80;91.80
81136;DHT22;70622;50.886;3.890;2024-03-06T15:33:06;15.00;90.10
81136;DHT22;70622;50.886;3.890;2024-03-06T15:35:32;15.30;89.10
81136;DHT22;70622;50.886;3.890;2024-03-06T15:37:58;15.20;89.30
81136;DHT22;70622;50.886;3.890;2024-03-06T15:40:24;14.70;89.70
81136;DHT22;70622;50.886;3.890;2024-03-06T15:42:50;14.10;90.80
81136;DHT22;70622;50.886;3.890;2024-03-06T15:45:16;13.90;91.60
81136;DHT22;70622;50.886;3.890;2024-03-06T15:47:42;13.90;91.80
81136;DHT22;70622;50.886;3.890;2024-03-06T15:50:09;13.80;91.90
81136;DHT22;70622;50.886;3.890;2024-03-06T15:52:37;13.70;91.40
81136;DHT22;70622;50.886;3.890;2024-03-06T15:55:04;13.50;92.40
81136;DHT22;70622;50.886;3.890;2024-03-06T15:57:30;13.50;92.80
81136;DHT22;70622;50.886;3.890;2024-03-06T15:59:57;13.50;92.70
81136;DHT22;70622;50.886;3.890;2024-03-06T16:02:22;13.60;92.60
81136;DHT22;70622;50.886;3.890;2024-03-06T16:04:49;13.80;92.50
81136;DHT22;70622;50.886;3.890;2024-03-06T16:07:15;13.90;92.30
81136;DHT22;70622;50.886;3.890;2024-03-06T16:09:41;13.90;92.00
81136;DHT22;70622;50.886;3.890;2024-03-06T16:12:06;14.00;92.00
81136;DHT22;70622;50.886;3.890;2024-03-06T16:14:32;14.10;92.20
81136;DHT22;70622;50.886;3.890;2024-03-06T16:16:58;14.00;91.60
81136;DHT22;70622;50.886;3.890;2024-03-06T16:19:23;14.00;91.80
81136;DHT22;70622;50.886;3.890;2024-03-06T16:21:49;14.10;91.20
81136;DHT22;70622;50.886;3.890;2024-03-06T16:24:16;14.20;91.10
81136;DHT22;70622;50.886;3.890;2024-03-06T16:26:42;14.40;90.60
81136;DHT22;70622;50.886;3.890;2024-03-06T16:29:08;14.40;90.40
81136;DHT22;70622;50.886;3.890;2024-03-06T16:31:34;14.20;88.50
81136;DHT22;70622;50.886;3.890;2024-03-06T16:34:00;14.40;89.30
81136;DHT22;70622;50.886;3.890;2024-03-06T16:36:25;15.30;85.50
81136;DHT22;70622;50.886;3.890;2024-03-06T16:38:51;16.40;80.40
81136;DHT22;70622;50.886;3.890;2024-03-06T16:41:17;17.10;75.60
81136;DHT22;70622;50.886;3.890;2024-03-06T16:43:43;17.70;71.10
81136;DHT22;70622;50.886;3.890;2024-03-06T16:46:09;18.00;67.20
81136;DHT22;70622;50.886;3.890;2024-03-06T16:48:35;17.80;68.30
81136;DHT22;70622;50.886;3.890;2024-03-06T16:51:01;17.80;68.70
81136;DHT22;70622;50.886;3.890;2024-03-06T16:53:28;17.80;68.60